Observation data for Muleshoe on 06/03/2020      Previous  Date  Next       Current Mesonet Observations  Soil Data  Daily Summary Page  Observations in Plain Language
KMUS 030500Z 15012KT 23/13 A3009 RMK A01 T02340132  RH  055%=      5-min Rain = 0
KMUS 030505Z 15012KT 23/13 A3009 RMK A01 T02330132  RH  055%=      5-min Rain = 0
KMUS 030510Z 15012KT 23/13 A3009 RMK A01 T02330132  RH  055%=      5-min Rain = 0
KMUS 030515Z 15012G17KT 23/13 A3009 RMK A01 T02320132  RH  056%=      5-min Rain = 0
KMUS 030520Z 16013KT 23/13 A3009 RMK A01 T02330132  RH  055%=      5-min Rain = 0
KMUS 030525Z 16012KT 23/13 A3009 RMK A01 T02330132  RH  055%=      5-min Rain = 0
KMUS 030530Z 16011KT 23/13 A3009 RMK A01 T02320132  RH  055%=      5-min Rain = 0
KMUS 030535Z 16012G17KT 23/13 A3009 RMK A01 T02310132  RH  056%=      5-min Rain = 0
KMUS 030540Z 16013KT 23/13 A3009 RMK A01 T02320132  RH  056%=      5-min Rain = 0
KMUS 030545Z 16012KT 23/13 A3009 RMK A01 T02310133  RH  056%=      5-min Rain = 0
KMUS 030550Z 17012G17KT 23/13 A3009 RMK A01 T02310133  RH  056%=      5-min Rain = 0
KMUS 030555Z 17013G18KT 23/13 A3009 RMK A01 T02310133  RH  056%=      5-min Rain = 0
KMUS 030600Z 17012G18KT 23/13 A3009 RMK A01 T02300133  RH  056%=      5-min Rain = 0
KMUS 030605Z 17011KT 23/13 A3009 RMK A01 T02300133  RH  057%=      5-min Rain = 0
KMUS 030610Z 17011G16KT 23/13 A3009 RMK A01 T02290133  RH  057%=      5-min Rain = 0
KMUS 030615Z 17011KT 23/13 A3009 RMK A01 T02280134  RH  057%=      5-min Rain = 0
KMUS 030620Z 17010G15KT 23/13 A301 RMK A01 T02270134  RH  058%=      5-min Rain = 0
KMUS 030625Z 17010KT 23/13 A301 RMK A01 T02260134  RH  058%=      5-min Rain = 0
KMUS 030630Z 17009KT 23/13 A301 RMK A01 T02250134  RH  059%=      5-min Rain = 0
KMUS 030635Z 18008KT 22/13 A3011 RMK A01 T02230134  RH  059%=      5-min Rain = 0
KMUS 030640Z 19007KT 22/13 A3011 RMK A01 T02210134  RH  060%=      5-min Rain = 0
KMUS 030645Z 21005KT 22/13 A3011 RMK A01 T02190134  RH  061%=      5-min Rain = 0
KMUS 030650Z 24005KT 22/13 A3012 RMK A01 T02160134  RH  062%=      5-min Rain = 0
KMUS 030655Z 27008KT 22/13 A3013 RMK A01 T02150133  RH  062%=      5-min Rain = 0
KMUS 030700Z 27008KT 21/13 A3013 RMK A01 T02120131  RH  062%=      5-min Rain = 0
KMUS 030705Z 26007KT 21/13 A3013 RMK A01 T02100129  RH  062%=      5-min Rain = 0
KMUS 030710Z 27007KT 21/13 A3013 RMK A01 T02080128  RH  063%=      5-min Rain = 0
KMUS 030715Z 27006KT 21/13 A3013 RMK A01 T02050128  RH  064%=      5-min Rain = 0
KMUS 030720Z 25004KT 20/13 A3012 RMK A01 T02020127  RH  065%=      5-min Rain = 0
KMUS 030725Z 25004KT 20/13 A3012 RMK A01 T01990127  RH  066%=      5-min Rain = 0
KMUS 030730Z 24003KT 20/13 A3011 RMK A01 T01970126  RH  066%=      5-min Rain = 0
KMUS 030735Z 23003KT 20/13 A3011 RMK A01 T01950126  RH  067%=      5-min Rain = 0
KMUS 030740Z 20002KT 19/13 A3011 RMK A01 T01920125  RH  067%=      5-min Rain = 0
KMUS 030745Z 19002KT 19/12 A3011 RMK A01 T01880122  RH  068%=      5-min Rain = 0
KMUS 030750Z 15003KT 18/12 A3011 RMK A01 T01840123  RH  070%=      5-min Rain = 0
KMUS 030755Z 15002KT 18/12 A3011 RMK A01 T01800121  RH  071%=      5-min Rain = 0
KMUS 030800Z 11004KT 18/12 A301 RMK A01 T01780122  RH  073%=      5-min Rain = 0
KMUS 030805Z 11004KT 18/12 A301 RMK A01 T01750122  RH  073%=      5-min Rain = 0
KMUS 030810Z 11005KT 17/12 A301 RMK A01 T01740123  RH  075%=      5-min Rain = 0
KMUS 030815Z 12006KT 17/12 A3009 RMK A01 T01740123  RH  075%=      5-min Rain = 0
KMUS 030820Z 12006KT 17/12 A3009 RMK A01 T01730123  RH  075%=      5-min Rain = 0
KMUS 030825Z 11007KT 17/12 A3009 RMK A01 T01740124  RH  075%=      5-min Rain = 0
KMUS 030830Z 12006KT 17/12 A3009 RMK A01 T01740124  RH  076%=      5-min Rain = 0
KMUS 030835Z 12005KT 17/13 A3009 RMK A01 T01740125  RH  076%=      5-min Rain = 0
KMUS 030840Z 13006KT 18/13 A3008 RMK A01 T01750126  RH  076%=      5-min Rain = 0
KMUS 030845Z 14006KT 18/13 A3008 RMK A01 T01760127  RH  076%=      5-min Rain = 0
KMUS 030850Z 14007KT 18/13 A3008 RMK A01 T01780130  RH  076%=      5-min Rain = 0
KMUS 030855Z 15007KT 18/13 A3007 RMK A01 T01800132  RH  077%=      5-min Rain = 0
KMUS 030900Z 16008KT 18/13 A3007 RMK A01 T01830134  RH  076%=      5-min Rain = 0
KMUS 030905Z 17009KT 19/14 A3007 RMK A01 T01900136  RH  074%=      5-min Rain = 0
KMUS 030910Z 17009KT 20/14 A3007 RMK A01 T01950136  RH  072%=      5-min Rain = 0
KMUS 030915Z 18009KT 20/14 A3006 RMK A01 T01970137  RH  071%=      5-min Rain = 0
KMUS 030920Z 18010KT 20/14 A3006 RMK A01 T01990137  RH  070%=      5-min Rain = 0
KMUS 030925Z 18010KT 20/14 A3006 RMK A01 T02000138  RH  070%=      5-min Rain = 0
KMUS 030930Z 18009KT 20/14 A3006 RMK A01 T02000138  RH  070%=      5-min Rain = 0
KMUS 030935Z 18009KT 20/14 A3006 RMK A01 T02000138  RH  070%=      5-min Rain = 0
KMUS 030940Z 18010KT 20/14 A3006 RMK A01 T02000138  RH  070%=      5-min Rain = 0
KMUS 030945Z 18010KT 20/14 A3006 RMK A01 T02000138  RH  071%=      5-min Rain = 0
KMUS 030950Z 19009KT 20/14 A3006 RMK A01 T02000138  RH  071%=      5-min Rain = 0
KMUS 030955Z 19009KT 20/14 A3006 RMK A01 T01990139  RH  071%=      5-min Rain = 0
KMUS 031000Z 19010KT 20/14 A3006 RMK A01 T01990139  RH  071%=      5-min Rain = 0
KMUS 031005Z 19009KT 20/14 A3006 RMK A01 T01980139  RH  071%=      5-min Rain = 0
KMUS 031010Z 19009KT 20/14 A3006 RMK A01 T01980139  RH  072%=      5-min Rain = 0
KMUS 031015Z 20008KT 20/14 A3006 RMK A01 T01960139  RH  072%=      5-min Rain = 0
KMUS 031020Z 19008KT 19/14 A3007 RMK A01 T01940138  RH  073%=      5-min Rain = 0
KMUS 031025Z 19008KT 19/14 A3007 RMK A01 T01930138  RH  074%=      5-min Rain = 0
KMUS 031030Z 20007KT 19/14 A3007 RMK A01 T01910138  RH  074%=      5-min Rain = 0
KMUS 031035Z 19007KT 19/14 A3007 RMK A01 T01890138  RH  075%=      5-min Rain = 0
KMUS 031040Z 19006KT 19/14 A3007 RMK A01 T01870138  RH  076%=      5-min Rain = 0
KMUS 031045Z 18006KT 19/14 A3007 RMK A01 T01850137  RH  076%=      5-min Rain = 0
KMUS 031050Z 16006KT 18/14 A3007 RMK A01 T01820135  RH  077%=      5-min Rain = 0
KMUS 031055Z 16005KT 18/14 A3007 RMK A01 T01790135  RH  079%=      5-min Rain = 0
KMUS 031100Z 16005KT 18/14 A3008 RMK A01 T01760135  RH  080%=      5-min Rain = 0
KMUS 031105Z 17005KT 17/13 A3007 RMK A01 T01740134  RH  080%=      5-min Rain = 0
KMUS 031110Z 18006KT 17/13 A3007 RMK A01 T01720133  RH  081%=      5-min Rain = 0
KMUS 031115Z 18005KT 17/13 A3007 RMK A01 T01700133  RH  082%=      5-min Rain = 0
KMUS 031120Z 18004KT 17/13 A3007 RMK A01 T01690133  RH  082%=      5-min Rain = 0
KMUS 031125Z 18004KT 17/13 A3007 RMK A01 T01680132  RH  083%=      5-min Rain = 0
KMUS 031130Z 17004KT 17/13 A3007 RMK A01 T01670132  RH  083%=      5-min Rain = 0
KMUS 031135Z 17005KT 16/13 A3008 RMK A01 T01640129  RH  083%=      5-min Rain = 0
KMUS 031140Z 17005KT 16/13 A3008 RMK A01 T01610128  RH  084%=      5-min Rain = 0
KMUS 031145Z 18005KT 16/13 A3008 RMK A01 T01600129  RH  085%=      5-min Rain = 0
KMUS 031150Z 19004KT 16/13 A3008 RMK A01 T01600129  RH  086%=      5-min Rain = 0
KMUS 031155Z 20003KT 16/13 A3008 RMK A01 T01590129  RH  085%=      5-min Rain = 0
KMUS 031200Z 26003KT 16/13 A3009 RMK A01 T01580129  RH  086%=      5-min Rain = 0
KMUS 031205Z 26004KT 16/13 A3009 RMK A01 T01570129  RH  086%=      5-min Rain = 0
KMUS 031210Z 26004KT 16/13 A3009 RMK A01 T01580130  RH  087%=      5-min Rain = 0
KMUS 031215Z 25004KT 16/13 A3009 RMK A01 T01600132  RH  087%=      5-min Rain = 0
KMUS 031220Z 24003KT 16/13 A3009 RMK A01 T01640134  RH  086%=      5-min Rain = 0
KMUS 031225Z 21002KT 17/14 A3009 RMK A01 T01680137  RH  085%=      5-min Rain = 0
KMUS 031230Z 22003KT 17/14 A3009 RMK A01 T01730138  RH  083%=      5-min Rain = 0
KMUS 031235Z 22004KT 18/14 A3009 RMK A01 T01790140  RH  081%=      5-min Rain = 0
KMUS 031240Z 22005KT 18/14 A3009 RMK A01 T01840140  RH  079%=      5-min Rain = 0
KMUS 031245Z 21005KT 19/14 A301 RMK A01 T01880141  RH  078%=      5-min Rain = 0
KMUS 031250Z 20005KT 19/14 A301 RMK A01 T01910142  RH  076%=      5-min Rain = 0
KMUS 031255Z 18005KT 19/14 A301 RMK A01 T01930142  RH  076%=      5-min Rain = 0
KMUS 031300Z 18005KT 20/14 A3009 RMK A01 T01950143  RH  075%=      5-min Rain = 0
KMUS 031305Z 20006KT 20/14 A301 RMK A01 T01970143  RH  074%=      5-min Rain = 0
KMUS 031310Z 19007KT 20/15 A301 RMK A01 T02010146  RH  074%=      5-min Rain = 0
KMUS 031315Z 20008KT 21/15 A301 RMK A01 T02060147  RH  072%=      5-min Rain = 0
KMUS 031320Z 20008KT 21/15 A301 RMK A01 T02100149  RH  071%=      5-min Rain = 0
KMUS 031325Z 21009KT 22/15 A301 RMK A01 T02150151  RH  070%=      5-min Rain = 0
KMUS 031330Z 21009KT 22/15 A301 RMK A01 T02190151  RH  068%=      5-min Rain = 0
KMUS 031335Z 22009KT 22/15 A301 RMK A01 T02220152  RH  067%=      5-min Rain = 0
KMUS 031340Z 23010KT 23/15 A301 RMK A01 T02250152  RH  066%=      5-min Rain = 0
KMUS 031345Z 22010KT 23/15 A301 RMK A01 T02280153  RH  066%=      5-min Rain = 0
KMUS 031350Z 22010G15KT 23/16 A301 RMK A01 T02310155  RH  065%=      5-min Rain = 0
KMUS 031355Z 22011KT 24/16 A301 RMK A01 T02370156  RH  063%=      5-min Rain = 0
KMUS 031400Z 22011KT 24/16 A3009 RMK A01 T02420156  RH  062%=      5-min Rain = 0
KMUS 031405Z 22013KT 25/16 A3009 RMK A01 T02450155  RH  060%=      5-min Rain = 0
KMUS 031410Z 22012KT 25/15 A3009 RMK A01 T02470154  RH  059%=      5-min Rain = 0
KMUS 031415Z 22012KT 25/15 A3009 RMK A01 T02490153  RH  058%=      5-min Rain = 0
KMUS 031420Z 22011KT 25/15 A3009 RMK A01 T02530153  RH  056%=      5-min Rain = 0
KMUS 031425Z 21011KT 26/15 A3009 RMK A01 T02550152  RH  055%=      5-min Rain = 0
KMUS 031430Z 23010KT 26/15 A3009 RMK A01 T02570149  RH  053%=      5-min Rain = 0
KMUS 031435Z 24010KT 26/14 A301 RMK A01 T02600143  RH  051%=      5-min Rain = 0
KMUS 031440Z 24010KT 26/14 A301 RMK A01 T02620140  RH  049%=      5-min Rain = 0
KMUS 031445Z 24009G14KT 27/14 A301 RMK A01 T02650136  RH  047%=      5-min Rain = 0
KMUS 031450Z 25010KT 27/14 A301 RMK A01 T02680136  RH  046%=      5-min Rain = 0
KMUS 031455Z 25009KT 27/14 A301 RMK A01 T02690136  RH  046%=      5-min Rain = 0
KMUS 031500Z 24008G13KT 27/13 A301 RMK A01 T02710134  RH  045%=      5-min Rain = 0
KMUS 031505Z 25009KT 27/13 A301 RMK A01 T02720133  RH  044%=      5-min Rain = 0
KMUS 031510Z 25009KT 27/13 A301 RMK A01 T02730132  RH  043%=      5-min Rain = 0
KMUS 031515Z 27009G14KT 27/13 A301 RMK A01 T02730131  RH  043%=      5-min Rain = 0
KMUS 031520Z 26010G15KT 28/13 A301 RMK A01 T02750131  RH  043%=      5-min Rain = 0
KMUS 031525Z 25007G14KT 27/13 A301 RMK A01 T02710128  RH  043%=      5-min Rain = 0
KMUS 031530Z 27008G13KT 27/13 A301 RMK A01 T02720128  RH  043%=      5-min Rain = 0
KMUS 031535Z 27008KT 28/13 A301 RMK A01 T02760126  RH  041%=      5-min Rain = 0
KMUS 031540Z 27007KT 28/13 A301 RMK A01 T02810128  RH  040%=      5-min Rain = 0
KMUS 031545Z 24009KT 28/12 A3009 RMK A01 T02800124  RH  039%=      5-min Rain = 0
KMUS 031550Z 28009KT 28/12 A3009 RMK A01 T02800121  RH  039%=      5-min Rain = 0
KMUS 031555Z 27009KT 28/12 A3009 RMK A01 T02810118  RH  038%=      5-min Rain = 0
KMUS 031600Z 26008G13KT 28/12 A3009 RMK A01 T02820118  RH  038%=      5-min Rain = 0
KMUS 031605Z 28007G12KT 28/12 A3009 RMK A01 T02830121  RH  038%=      5-min Rain = 0
KMUS 031610Z 26006G12KT 28/12 A3009 RMK A01 T02820121  RH  038%=      5-min Rain = 0
KMUS 031615Z 24009KT 28/12 A3009 RMK A01 T02840122  RH  038%=      5-min Rain = 0
KMUS 031620Z 23010KT 29/12 A3009 RMK A01 T02890122  RH  037%=      5-min Rain = 0
KMUS 031625Z 23009G14KT 29/12 A3009 RMK A01 T02910121  RH  036%=      5-min Rain = 0
KMUS 031630Z 25009KT 29/12 A3009 RMK A01 T02930117  RH  035%=      5-min Rain = 0
KMUS 031635Z 25007G13KT 29/11 A3009 RMK A01 T02930113  RH  034%=      5-min Rain = 0
KMUS 031640Z 23008G13KT 29/11 A3009 RMK A01 T02920113  RH  034%=      5-min Rain = 0
KMUS 031645Z 24008KT 30/11 A3009 RMK A01 T02960113  RH  033%=      5-min Rain = 0
KMUS 031650Z 24008G16KT 30/11 A3009 RMK A01 T02980113  RH  033%=      5-min Rain = 0
KMUS 031655Z 26007KT 30/11 A3009 RMK A01 T02960111  RH  033%=      5-min Rain = 0
KMUS 031700Z 24009G14KT 30/11 A3009 RMK A01 T02960114  RH  034%=      5-min Rain = 0
KMUS 031705Z 25006G11KT 30/11 A3009 RMK A01 T02970111  RH  033%=      5-min Rain = 0
KMUS 031710Z 27006G12KT 30/11 A3008 RMK A01 T02990111  RH  032%=      5-min Rain = 0
KMUS 031715Z 26007KT 30/11 A3008 RMK A01 T03000109  RH  032%=      5-min Rain = 0
KMUS 031720Z 23006KT 31/11 A3008 RMK A01 T03050112  RH  031%=      5-min Rain = 0
KMUS 031725Z 21006G11KT 31/11 A3008 RMK A01 T03060109  RH  031%=      5-min Rain = 0
KMUS 031730Z 18006G13KT 31/11 A3008 RMK A01 T03080107  RH  030%=      5-min Rain = 0
KMUS 031735Z 24008KT 31/11 A3008 RMK A01 T03110109  RH  030%=      5-min Rain = 0
KMUS 031740Z 25005KT 31/11 A3008 RMK A01 T03100107  RH  030%=      5-min Rain = 0
KMUS 031745Z 24002G10KT 31/11 A3008 RMK A01 T03090107  RH  030%=      5-min Rain = 0
KMUS 031750Z 21006G13KT 31/10 A3007 RMK A01 T03110103  RH  029%=      5-min Rain = 0
KMUS 031755Z 17008G13KT 31/10 A3007 RMK A01 T03130099  RH  027%=      5-min Rain = 0
KMUS 031800Z 18006KT 32/10 A3007 RMK A01 T03150101  RH  028%=      5-min Rain = 0
KMUS 031805Z 23008KT 32/10 A3007 RMK A01 T03170102  RH  027%=      5-min Rain = 0
KMUS 031810Z 25006G13KT 32/10 A3006 RMK A01 T03160100  RH  027%=      5-min Rain = 0
KMUS 031815Z 22005G11KT 32/10 A3006 RMK A01 T03160102  RH  028%=      5-min Rain = 0
KMUS 031820Z 19006G13KT 32/10 A3006 RMK A01 T03190103  RH  027%=      5-min Rain = 0
KMUS 031825Z 18006KT 32/10 A3006 RMK A01 T03240101  RH  026%=      5-min Rain = 0
KMUS 031830Z 19004G12KT 32/10 A3006 RMK A01 T03230101  RH  026%=      5-min Rain = 0
KMUS 031835Z 18006G12KT 32/10 A3005 RMK A01 T03230097  RH  026%=      5-min Rain = 0
KMUS 031840Z 20003KT 32/09 A3005 RMK A01 T03200091  RH  025%=      5-min Rain = 0
KMUS 031845Z 20003G9KT 32/09 A3005 RMK A01 T03220093  RH  025%=      5-min Rain = 0
KMUS 031850Z 24006G11KT 33/09 A3005 RMK A01 T03250093  RH  025%=      5-min Rain = 0
KMUS 031855Z 26002KT 33/09 A3005 RMK A01 T03270086  RH  023%=      5-min Rain = 0
KMUS 031900Z 19005G11KT 33/08 A3004 RMK A01 T03300082  RH  022%=      5-min Rain = 0
KMUS 031905Z 16006G19KT 33/08 A3004 RMK A01 T03300079  RH  022%=      5-min Rain = 0
KMUS 031910Z 15006G14KT 33/08 A3004 RMK A01 T03320077  RH  021%=      5-min Rain = 0
KMUS 031915Z 13004KT 33/07 A3004 RMK A01 T03310069  RH  020%=      5-min Rain = 0
KMUS 031920Z 10004KT 33/08 A3003 RMK A01 T03320076  RH  021%=      5-min Rain = 0
KMUS 031925Z 21003G8KT 34/08 A3003 RMK A01 T03410082  RH  021%=      5-min Rain = 0
KMUS 031930Z 20008KT 34/08 A3003 RMK A01 T03390077  RH  020%=      5-min Rain = 0
KMUS 031935Z 24005KT 34/08 A3003 RMK A01 T03370075  RH  020%=      5-min Rain = 0
KMUS 031940Z 12006G11KT 34/08 A3003 RMK A01 T03360076  RH  021%=      5-min Rain = 0
KMUS 031945Z 13006G11KT 33/07 A3002 RMK A01 T03300074  RH  021%=      5-min Rain = 0
KMUS 031950Z 15008G14KT 34/07 A3002 RMK A01 T03350072  RH  020%=      5-min Rain = 0
KMUS 031955Z 13007KT 34/07 A3002 RMK A01 T03360071  RH  020%=      5-min Rain = 0
KMUS 032000Z 19006G12KT 34/07 A3002 RMK A01 T03350074  RH  020%=      5-min Rain = 0
KMUS 032005Z 21006G11KT 34/08 A3002 RMK A01 T03360079  RH  021%=      5-min Rain = 0
KMUS 032010Z 24006G11KT 34/08 A3002 RMK A01 T03380082  RH  021%=      5-min Rain = 0
KMUS 032015Z 22005KT 34/08 A3002 RMK A01 T03370078  RH  021%=      5-min Rain = 0
KMUS 032020Z 12003G9KT 33/08 A3001 RMK A01 T03340077  RH  021%=      5-min Rain = 0
KMUS 032025Z 15004KT 34/08 A3001 RMK A01 T03380078  RH  021%=      5-min Rain = 0
KMUS 032030Z 16003KT 33/08 A3001 RMK A01 T03310076  RH  021%=      5-min Rain = 0
KMUS 032035Z 18003KT 33/08 A3001 RMK A01 T03320079  RH  022%=      5-min Rain = 0
KMUS 032040Z 14006G11KT 34/08 A30 RMK A01 T03390078  RH  021%=      5-min Rain = 0
KMUS 032045Z 17004KT 34/08 A30 RMK A01 T03390078  RH  021%=      5-min Rain = 0
KMUS 032050Z 25006KT 34/08 A30 RMK A01 T03380076  RH  020%=      5-min Rain = 0
KMUS 032055Z 21006G12KT 34/08 A30 RMK A01 T03400079  RH  021%=      5-min Rain = 0
KMUS 032100Z 18008G14KT 33/08 A30 RMK A01 T03320083  RH  022%=      5-min Rain = 0
KMUS 032105Z 16004G12KT 33/09 A30 RMK A01 T03340085  RH  022%=      5-min Rain = 0
KMUS 032110Z 14007KT 33/08 A30 RMK A01 T03310083  RH  022%=      5-min Rain = 0
KMUS 032115Z 03002KT 33/08 A2999 RMK A01 T03270084  RH  023%=      5-min Rain = 0
KMUS 032120Z 03004KT 33/09 A2999 RMK A01 T03270086  RH  023%=      5-min Rain = 0
KMUS 032125Z 11005KT 33/09 A2999 RMK A01 T03320087  RH  023%=      5-min Rain = 0
KMUS 032130Z 21006G12KT 33/09 A2999 RMK A01 T03340089  RH  023%=      5-min Rain = 0
KMUS 032135Z 22007KT 33/09 A2999 RMK A01 T03330089  RH  023%=      5-min Rain = 0
KMUS 032140Z 24007G12KT 33/09 A2999 RMK A01 T03280089  RH  024%=      5-min Rain = 0
KMUS 032145Z 23006KT 33/09 A2998 RMK A01 T03270089  RH  024%=      5-min Rain = 0
KMUS 032150Z 25006KT 34/09 A2998 RMK A01 T03380091  RH  023%=      5-min Rain = 0
KMUS 032155Z 24004KT 34/09 A2998 RMK A01 T03420090  RH  022%=      5-min Rain = 0
KMUS 032200Z 22007KT 34/09 A2998 RMK A01 T03420090  RH  022%=      5-min Rain = 0
KMUS 032205Z 24007G13KT 34/09 A2997 RMK A01 T03430090  RH  022%=      5-min Rain = 0
KMUS 032210Z 23011G17KT 35/09 A2997 RMK A01 T03460092  RH  022%=      5-min Rain = 0
KMUS 032215Z 22007G12KT 34/09 A2997 RMK A01 T03370090  RH  023%=      5-min Rain = 0
KMUS 032220Z 20005KT 33/09 A2997 RMK A01 T03320089  RH  023%=      5-min Rain = 0
KMUS 032225Z 19006KT 33/09 A2997 RMK A01 T03320089  RH  023%=      5-min Rain = 0
KMUS 032230Z 19004KT 33/09 A2997 RMK A01 T03340090  RH  023%=      5-min Rain = 0
KMUS 032235Z 19004KT 34/09 A2997 RMK A01 T03360088  RH  022%=      5-min Rain = 0
KMUS 032240Z 20006G12KT 33/09 A2996 RMK A01 T03330091  RH  023%=      5-min Rain = 0
KMUS 032245Z 19006KT 33/09 A2996 RMK A01 T03330091  RH  023%=      5-min Rain = 0
KMUS 032250Z 17004KT 34/09 A2996 RMK A01 T03380088  RH  022%=      5-min Rain = 0
KMUS 032255Z 15006KT 34/09 A2996 RMK A01 T03390092  RH  023%=      5-min Rain = 0
KMUS 032300Z 16004G9KT 34/09 A2996 RMK A01 T03410092  RH  022%=      5-min Rain = 0
KMUS 032305Z 23005G10KT 35/09 A2996 RMK A01 T03450089  RH  022%=      5-min Rain = 0
KMUS 032310Z 25008KT 35/09 A2996 RMK A01 T03470089  RH  021%=      5-min Rain = 0
KMUS 032315Z 20008KT 35/09 A2996 RMK A01 T03450087  RH  021%=      5-min Rain = 0
KMUS 032320Z 24010KT 35/09 A2995 RMK A01 T03460087  RH  021%=      5-min Rain = 0
KMUS 032325Z 25010KT 35/09 A2995 RMK A01 T03450086  RH  021%=      5-min Rain = 0
KMUS 032330Z 22008KT 34/09 A2995 RMK A01 T03430088  RH  022%=      5-min Rain = 0
KMUS 032335Z 20011KT 34/09 A2995 RMK A01 T03420091  RH  022%=      5-min Rain = 0
KMUS 032340Z 19010KT 34/09 A2995 RMK A01 T03400091  RH  022%=      5-min Rain = 0
KMUS 032345Z 20010KT 34/09 A2995 RMK A01 T03410093  RH  023%=      5-min Rain = 0
KMUS 032350Z 20010KT 34/09 A2995 RMK A01 T03400093  RH  023%=      5-min Rain = 0
KMUS 032355Z 19010KT 34/10 A2995 RMK A01 T03380096  RH  023%=      5-min Rain = 0
KMUS 040000Z 18012KT 33/10 A2995 RMK A01 T03320098  RH  025%=      5-min Rain = 0
KMUS 040005Z 18012KT 33/10 A2995 RMK A01 T03310096  RH  024%=      5-min Rain = 0
KMUS 040010Z 18013G18KT 33/10 A2995 RMK A01 T03300098  RH  025%=      5-min Rain = 0
KMUS 040015Z 19013G18KT 33/10 A2995 RMK A01 T03270098  RH  025%=      5-min Rain = 0
KMUS 040020Z 18014KT 32/10 A2995 RMK A01 T03240095  RH  025%=      5-min Rain = 0
KMUS 040025Z 19013KT 32/10 A2995 RMK A01 T03210099  RH  026%=      5-min Rain = 0
KMUS 040030Z 18012KT 32/10 A2994 RMK A01 T03200100  RH  027%=      5-min Rain = 0
KMUS 040035Z 18012KT 32/10 A2994 RMK A01 T03160101  RH  027%=      5-min Rain = 0
KMUS 040040Z 19012KT 31/10 A2994 RMK A01 T03130101  RH  028%=      5-min Rain = 0
KMUS 040045Z 19012KT 31/10 A2995 RMK A01 T03120101  RH  028%=      5-min Rain = 0
KMUS 040050Z 19011KT 31/10 A2995 RMK A01 T03080102  RH  029%=      5-min Rain = 0
KMUS 040055Z 18010KT 31/10 A2995 RMK A01 T03080101  RH  029%=      5-min Rain = 0
KMUS 040100Z 19008KT 31/10 A2995 RMK A01 T03060102  RH  029%=      5-min Rain = 0
KMUS 040105Z 19008KT 30/10 A2995 RMK A01 T03030103  RH  030%=      5-min Rain = 0
KMUS 040110Z 18007KT 30/10 A2995 RMK A01 T03010102  RH  030%=      5-min Rain = 0
KMUS 040115Z 18006KT 30/10 A2995 RMK A01 T02990103  RH  031%=      5-min Rain = 0
KMUS 040120Z 17007KT 30/10 A2995 RMK A01 T02960103  RH  031%=      5-min Rain = 0
KMUS 040125Z 17007KT 29/10 A2995 RMK A01 T02920103  RH  032%=      5-min Rain = 0
KMUS 040130Z 17007KT 29/10 A2995 RMK A01 T02900103  RH  032%=      5-min Rain = 0
KMUS 040135Z 17008KT 29/10 A2996 RMK A01 T02890102  RH  032%=      5-min Rain = 0
KMUS 040140Z 18007KT 29/10 A2995 RMK A01 T02890101  RH  032%=      5-min Rain = 0
KMUS 040145Z 17007KT 29/10 A2995 RMK A01 T02880101  RH  032%=      5-min Rain = 0
KMUS 040150Z 17007KT 29/10 A2996 RMK A01 T02870101  RH  032%=      5-min Rain = 0
KMUS 040155Z 18006KT 29/10 A2996 RMK A01 T02850101  RH  033%=      5-min Rain = 0
KMUS 040200Z 17006KT 28/10 A2996 RMK A01 T02830100  RH  033%=      5-min Rain = 0
KMUS 040205Z 17006KT 28/10 A2996 RMK A01 T02800100  RH  034%=      5-min Rain = 0
KMUS 040210Z 17006KT 27/10 A2996 RMK A01 T02740102  RH  035%=      5-min Rain = 0
KMUS 040215Z 17006KT 27/10 A2996 RMK A01 T02690103  RH  037%=      5-min Rain = 0
KMUS 040220Z 17006KT 27/10 A2996 RMK A01 T02660103  RH  037%=      5-min Rain = 0
KMUS 040225Z 17005KT 26/10 A2996 RMK A01 T02630102  RH  038%=      5-min Rain = 0
KMUS 040230Z 18006KT 26/10 A2996 RMK A01 T02610103  RH  038%=      5-min Rain = 0
KMUS 040235Z 18006KT 26/10 A2997 RMK A01 T02610103  RH  038%=      5-min Rain = 0
KMUS 040240Z 18006KT 26/11 A2997 RMK A01 T02600105  RH  039%=      5-min Rain = 0
KMUS 040245Z 18006KT 26/11 A2997 RMK A01 T02580105  RH  040%=      5-min Rain = 0
KMUS 040250Z 17006KT 26/11 A2997 RMK A01 T02560107  RH  040%=      5-min Rain = 0
KMUS 040255Z 17005KT 25/11 A2997 RMK A01 T02540107  RH  041%=      5-min Rain = 0
KMUS 040300Z 17006KT 25/11 A2997 RMK A01 T02490108  RH  042%=      5-min Rain = 0
KMUS 040305Z 17006KT 25/11 A2997 RMK A01 T02460109  RH  044%=      5-min Rain = 0
KMUS 040310Z 17006KT 24/11 A2997 RMK A01 T02440110  RH  044%=      5-min Rain = 0
KMUS 040315Z 17006KT 24/11 A2998 RMK A01 T02430112  RH  045%=      5-min Rain = 0
KMUS 040320Z 18006KT 24/11 A2998 RMK A01 T02440113  RH  045%=      5-min Rain = 0
KMUS 040325Z 17006KT 25/11 A2998 RMK A01 T02460114  RH  045%=      5-min Rain = 0
KMUS 040330Z 17006KT 25/11 A2998 RMK A01 T02480114  RH  045%=      5-min Rain = 0
KMUS 040335Z 17007KT 25/11 A2998 RMK A01 T02480114  RH  045%=      5-min Rain = 0
KMUS 040340Z 17007KT 25/12 A2998 RMK A01 T02500115  RH  044%=      5-min Rain = 0
KMUS 040345Z 17006KT 25/12 A2998 RMK A01 T02500115  RH  045%=      5-min Rain = 0
KMUS 040350Z 16006KT 25/12 A2998 RMK A01 T02480115  RH  045%=      5-min Rain = 0
KMUS 040355Z 16007KT 25/12 A2998 RMK A01 T02470116  RH  046%=      5-min Rain = 0
KMUS 040400Z 16007KT 25/12 A2998 RMK A01 T02480117  RH  045%=      5-min Rain = 0
KMUS 040405Z 16007KT 25/12 A2998 RMK A01 T02510116  RH  045%=      5-min Rain = 0
KMUS 040410Z 17006KT 25/12 A2999 RMK A01 T02500116  RH  045%=      5-min Rain = 0
KMUS 040415Z 17007KT 25/12 A2999 RMK A01 T02500115  RH  044%=      5-min Rain = 0
KMUS 040420Z 17007KT 25/11 A2999 RMK A01 T02520114  RH  043%=      5-min Rain = 0
KMUS 040425Z 17007KT 25/11 A2999 RMK A01 T02540113  RH  043%=      5-min Rain = 0
KMUS 040430Z 16007KT 25/11 A2999 RMK A01 T02530113  RH  043%=      5-min Rain = 0
KMUS 040435Z 16007KT 25/11 A2999 RMK A01 T02520114  RH  044%=      5-min Rain = 0
KMUS 040440Z 16008KT 25/11 A2999 RMK A01 T02490114  RH  044%=      5-min Rain = 0
KMUS 040445Z 16009KT 25/11 A2999 RMK A01 T02500114  RH  044%=      5-min Rain = 0
KMUS 040450Z 16008KT 25/11 A2999 RMK A01 T02490114  RH  044%=      5-min Rain = 0
KMUS 040455Z 16007KT 25/11 A2998 RMK A01 T02480114  RH  044%=      5-min Rain = 0

Page generated in 0.0094 seconds.